sensor_id;sensor_type;location;lat;lon;timestamp;P1;durP1;ratioP1;P2;durP2;ratioP2
12024;SDS011;6073;53.230;10.444;2023-07-24T00:00:18;3.42;;;2.88;;
12024;SDS011;6073;53.230;10.444;2023-07-24T00:02:44;3.20;;;2.90;;
12024;SDS011;6073;53.230;10.444;2023-07-24T00:05:09;3.28;;;2.92;;
12024;SDS011;6073;53.230;10.444;2023-07-24T00:07:35;2.92;;;2.70;;
12024;SDS011;6073;53.230;10.444;2023-07-24T00:10:01;4.40;;;2.83;;
12024;SDS011;6073;53.230;10.444;2023-07-24T00:12:26;3.40;;;2.92;;
12024;SDS011;6073;53.230;10.444;2023-07-24T00:14:52;3.92;;;3.08;;
12024;SDS011;6073;53.230;10.444;2023-07-24T00:17:18;3.30;;;3.00;;
12024;SDS011;6073;53.230;10.444;2023-07-24T00:19:43;3.58;;;2.80;;
12024;SDS011;6073;53.230;10.444;2023-07-24T00:22:09;3.17;;;2.85;;
12024;SDS011;6073;53.230;10.444;2023-07-24T00:24:34;3.22;;;2.92;;
12024;SDS011;6073;53.230;10.444;2023-07-24T00:27:00;3.10;;;2.80;;
12024;SDS011;6073;53.230;10.444;2023-07-24T00:29:26;2.75;;;2.50;;
12024;SDS011;6073;53.230;10.444;2023-07-24T00:31:52;5.00;;;2.88;;
12024;SDS011;6073;53.230;10.444;2023-07-24T00:34:17;3.40;;;3.10;;
12024;SDS011;6073;53.230;10.444;2023-07-24T00:36:43;3.20;;;2.90;;
12024;SDS011;6073;53.230;10.444;2023-07-24T00:39:08;2.92;;;2.63;;
12024;SDS011;6073;53.230;10.444;2023-07-24T00:41:34;3.55;;;2.92;;
12024;SDS011;6073;53.230;10.444;2023-07-24T00:43:59;3.08;;;2.80;;
12024;SDS011;6073;53.230;10.444;2023-07-24T00:46:25;3.63;;;2.60;;
12024;SDS011;6073;53.230;10.444;2023-07-24T00:48:50;3.75;;;3.20;;
12024;SDS011;6073;53.230;10.444;2023-07-24T00:51:17;3.08;;;2.78;;
12024;SDS011;6073;53.230;10.444;2023-07-24T00:53:43;4.20;;;3.15;;
12024;SDS011;6073;53.230;10.444;2023-07-24T00:56:09;3.13;;;2.83;;
12024;SDS011;6073;53.230;10.444;2023-07-24T00:58:36;3.33;;;2.90;;
12024;SDS011;6073;53.230;10.444;2023-07-24T01:01:03;3.10;;;2.70;;
12024;SDS011;6073;53.230;10.444;2023-07-24T01:03:33;3.58;;;2.88;;
12024;SDS011;6073;53.230;10.444;2023-07-24T01:06:01;2.60;;;2.40;;
12024;SDS011;6073;53.230;10.444;2023-07-24T01:08:27;2.80;;;2.60;;
12024;SDS011;6073;53.230;10.444;2023-07-24T01:10:53;3.38;;;3.08;;
12024;SDS011;6073;53.230;10.444;2023-07-24T01:13:24;3.33;;;2.60;;
12024;SDS011;6073;53.230;10.444;2023-07-24T01:16:04;3.10;;;2.80;;
12024;SDS011;6073;53.230;10.444;2023-07-24T01:18:34;3.72;;;2.50;;
12024;SDS011;6073;53.230;10.444;2023-07-24T01:21:02;3.40;;;2.88;;
12024;SDS011;6073;53.230;10.444;2023-07-24T01:26:01;2.95;;;2.58;;
12024;SDS011;6073;53.230;10.444;2023-07-24T01:28:29;3.05;;;2.70;;
12024;SDS011;6073;53.230;10.444;2023-07-24T01:30:55;3.10;;;2.80;;
12024;SDS011;6073;53.230;10.444;2023-07-24T01:33:22;4.05;;;2.92;;
12024;SDS011;6073;53.230;10.444;2023-07-24T01:35:49;3.47;;;3.17;;
12024;SDS011;6073;53.230;10.444;2023-07-24T01:38:19;3.20;;;2.90;;
12024;SDS011;6073;53.230;10.444;2023-07-24T01:40:46;4.63;;;3.17;;
12024;SDS011;6073;53.230;10.444;2023-07-24T01:43:12;3.78;;;3.42;;
12024;SDS011;6073;53.230;10.444;2023-07-24T01:45:38;3.42;;;3.10;;
12024;SDS011;6073;53.230;10.444;2023-07-24T01:48:03;3.92;;;2.92;;
12024;SDS011;6073;53.230;10.444;2023-07-24T01:50:30;3.53;;;3.22;;
12024;SDS011;6073;53.230;10.444;2023-07-24T01:52:56;4.28;;;3.03;;
12024;SDS011;6073;53.230;10.444;2023-07-24T01:55:21;3.92;;;3.10;;
12024;SDS011;6073;53.230;10.444;2023-07-24T01:57:47;2.90;;;2.70;;
12024;SDS011;6073;53.230;10.444;2023-07-24T02:00:12;3.30;;;3.00;;
12024;SDS011;6073;53.230;10.444;2023-07-24T02:02:38;3.42;;;3.13;;
12024;SDS011;6073;53.230;10.444;2023-07-24T02:05:03;3.50;;;3.20;;
12024;SDS011;6073;53.230;10.444;2023-07-24T02:07:29;3.08;;;2.78;;
12024;SDS011;6073;53.230;10.444;2023-07-24T02:09:55;3.42;;;3.13;;
12024;SDS011;6073;53.230;10.444;2023-07-24T02:12:20;3.80;;;2.92;;
12024;SDS011;6073;53.230;10.444;2023-07-24T02:14:46;3.35;;;3.05;;
12024;SDS011;6073;53.230;10.444;2023-07-24T02:17:14;4.65;;;2.95;;
12024;SDS011;6073;53.230;10.444;2023-07-24T02:19:40;4.65;;;3.08;;
12024;SDS011;6073;53.230;10.444;2023-07-24T02:22:06;3.65;;;3.28;;
12024;SDS011;6073;53.230;10.444;2023-07-24T02:24:31;3.75;;;3.20;;
12024;SDS011;6073;53.230;10.444;2023-07-24T02:26:57;3.80;;;3.13;;
12024;SDS011;6073;53.230;10.444;2023-07-24T02:29:22;3.83;;;3.17;;
12024;SDS011;6073;53.230;10.444;2023-07-24T02:31:48;5.05;;;3.40;;
12024;SDS011;6073;53.230;10.444;2023-07-24T02:34:14;3.30;;;3.00;;
12024;SDS011;6073;53.230;10.444;2023-07-24T02:36:40;3.20;;;3.00;;
12024;SDS011;6073;53.230;10.444;2023-07-24T02:39:06;3.13;;;2.90;;
12024;SDS011;6073;53.230;10.444;2023-07-24T02:41:32;3.72;;;3.40;;
12024;SDS011;6073;53.230;10.444;2023-07-24T02:43:57;3.45;;;3.15;;
12024;SDS011;6073;53.230;10.444;2023-07-24T02:46:23;5.47;;;3.45;;
12024;SDS011;6073;53.230;10.444;2023-07-24T02:48:49;3.90;;;3.53;;
12024;SDS011;6073;53.230;10.444;2023-07-24T02:51:16;3.47;;;3.17;;
12024;SDS011;6073;53.230;10.444;2023-07-24T02:53:41;4.18;;;3.78;;
12024;SDS011;6073;53.230;10.444;2023-07-24T02:56:07;4.88;;;3.78;;
12024;SDS011;6073;53.230;10.444;2023-07-24T02:58:32;4.88;;;3.13;;
12024;SDS011;6073;53.230;10.444;2023-07-24T03:01:04;4.13;;;3.72;;
12024;SDS011;6073;53.230;10.444;2023-07-24T03:03:32;3.95;;;3.20;;
12024;SDS011;6073;53.230;10.444;2023-07-24T03:05:57;3.60;;;3.30;;
12024;SDS011;6073;53.230;10.444;2023-07-24T03:08:23;3.70;;;3.35;;
12024;SDS011;6073;53.230;10.444;2023-07-24T03:10:48;4.10;;;3.40;;
12024;SDS011;6073;53.230;10.444;2023-07-24T03:13:14;4.55;;;3.45;;
12024;SDS011;6073;53.230;10.444;2023-07-24T03:15:39;3.53;;;3.22;;
12024;SDS011;6073;53.230;10.444;2023-07-24T03:18:05;4.13;;;3.50;;
12024;SDS011;6073;53.230;10.444;2023-07-24T03:20:30;4.55;;;3.47;;
12024;SDS011;6073;53.230;10.444;2023-07-24T03:22:56;4.78;;;4.10;;
12024;SDS011;6073;53.230;10.444;2023-07-24T03:25:21;4.35;;;3.95;;
12024;SDS011;6073;53.230;10.444;2023-07-24T03:27:47;3.72;;;3.30;;
12024;SDS011;6073;53.230;10.444;2023-07-24T03:30:13;4.88;;;3.47;;
12024;SDS011;6073;53.230;10.444;2023-07-24T03:32:38;4.35;;;3.95;;
12024;SDS011;6073;53.230;10.444;2023-07-24T03:35:04;4.30;;;3.90;;
12024;SDS011;6073;53.230;10.444;2023-07-24T03:37:31;5.78;;;3.90;;
12024;SDS011;6073;53.230;10.444;2023-07-24T03:39:56;4.63;;;3.85;;
12024;SDS011;6073;53.230;10.444;2023-07-24T03:42:31;4.20;;;3.80;;
12024;SDS011;6073;53.230;10.444;2023-07-24T03:44:57;4.65;;;3.95;;
12024;SDS011;6073;53.230;10.444;2023-07-24T03:47:23;3.72;;;3.42;;
12024;SDS011;6073;53.230;10.444;2023-07-24T03:49:49;5.55;;;3.90;;
12024;SDS011;6073;53.230;10.444;2023-07-24T03:52:15;4.50;;;3.63;;
12024;SDS011;6073;53.230;10.444;2023-07-24T03:54:41;4.15;;;3.75;;
12024;SDS011;6073;53.230;10.444;2023-07-24T03:57:06;4.32;;;3.78;;
12024;SDS011;6073;53.230;10.444;2023-07-24T03:59:32;5.55;;;3.70;;
12024;SDS011;6073;53.230;10.444;2023-07-24T04:01:58;4.32;;;3.90;;
12024;SDS011;6073;53.230;10.444;2023-07-24T04:04:23;4.50;;;3.80;;
12024;SDS011;6073;53.230;10.444;2023-07-24T04:06:49;4.65;;;4.00;;
12024;SDS011;6073;53.230;10.444;2023-07-24T04:09:15;4.10;;;3.70;;
12024;SDS011;6073;53.230;10.444;2023-07-24T04:11:41;4.85;;;3.35;;
12024;SDS011;6073;53.230;10.444;2023-07-24T04:14:09;4.03;;;3.72;;
12024;SDS011;6073;53.230;10.444;2023-07-24T04:16:36;4.30;;;3.90;;
12024;SDS011;6073;53.230;10.444;2023-07-24T04:19:02;4.05;;;3.65;;
12024;SDS011;6073;53.230;10.444;2023-07-24T04:21:28;4.10;;;3.70;;
12024;SDS011;6073;53.230;10.444;2023-07-24T04:23:53;3.88;;;3.55;;
12024;SDS011;6073;53.230;10.444;2023-07-24T04:26:19;3.90;;;3.55;;
12024;SDS011;6073;53.230;10.444;2023-07-24T04:28:44;4.70;;;4.05;;
12024;SDS011;6073;53.230;10.444;2023-07-24T04:31:10;4.13;;;3.72;;
12024;SDS011;6073;53.230;10.444;2023-07-24T04:33:35;3.90;;;3.60;;
12024;SDS011;6073;53.230;10.444;2023-07-24T04:36:01;4.20;;;3.70;;
12024;SDS011;6073;53.230;10.444;2023-07-24T04:38:26;4.45;;;3.65;;
12024;SDS011;6073;53.230;10.444;2023-07-24T04:40:52;4.55;;;3.92;;
12024;SDS011;6073;53.230;10.444;2023-07-24T04:43:18;3.80;;;3.50;;
12024;SDS011;6073;53.230;10.444;2023-07-24T04:45:43;3.92;;;3.63;;
12024;SDS011;6073;53.230;10.444;2023-07-24T04:48:09;4.00;;;3.65;;
12024;SDS011;6073;53.230;10.444;2023-07-24T04:50:34;4.03;;;3.72;;
12024;SDS011;6073;53.230;10.444;2023-07-24T04:53:00;3.75;;;3.45;;
12024;SDS011;6073;53.230;10.444;2023-07-24T04:55:25;4.80;;;3.88;;
12024;SDS011;6073;53.230;10.444;2023-07-24T04:57:51;4.10;;;3.70;;
12024;SDS011;6073;53.230;10.444;2023-07-24T05:00:16;4.22;;;3.83;;
12024;SDS011;6073;53.230;10.444;2023-07-24T05:02:42;4.38;;;3.92;;
12024;SDS011;6073;53.230;10.444;2023-07-24T05:05:07;4.65;;;4.00;;
12024;SDS011;6073;53.230;10.444;2023-07-24T05:07:33;4.43;;;3.67;;
12024;SDS011;6073;53.230;10.444;2023-07-24T05:09:59;4.30;;;3.90;;
12024;SDS011;6073;53.230;10.444;2023-07-24T05:12:24;4.03;;;3.63;;
12024;SDS011;6073;53.230;10.444;2023-07-24T05:14:50;3.97;;;3.67;;
12024;SDS011;6073;53.230;10.444;2023-07-24T05:17:16;3.85;;;3.40;;
12024;SDS011;6073;53.230;10.444;2023-07-24T05:19:41;4.05;;;3.75;;
12024;SDS011;6073;53.230;10.444;2023-07-24T05:22:07;4.43;;;4.07;;
12024;SDS011;6073;53.230;10.444;2023-07-24T05:24:33;3.80;;;3.50;;
12024;SDS011;6073;53.230;10.444;2023-07-24T05:26:59;4.10;;;3.80;;
12024;SDS011;6073;53.230;10.444;2023-07-24T05:29:24;4.38;;;3.97;;
12024;SDS011;6073;53.230;10.444;2023-07-24T05:31:50;4.03;;;3.63;;
12024;SDS011;6073;53.230;10.444;2023-07-24T05:34:15;4.53;;;3.40;;
12024;SDS011;6073;53.230;10.444;2023-07-24T05:36:41;3.80;;;3.50;;
12024;SDS011;6073;53.230;10.444;2023-07-24T05:39:06;3.78;;;3.28;;
12024;SDS011;6073;53.230;10.444;2023-07-24T05:41:32;3.60;;;3.28;;
12024;SDS011;6073;53.230;10.444;2023-07-24T05:43:57;3.90;;;3.45;;
12024;SDS011;6073;53.230;10.444;2023-07-24T05:46:23;4.55;;;3.20;;
12024;SDS011;6073;53.230;10.444;2023-07-24T05:48:48;3.35;;;3.05;;
12024;SDS011;6073;53.230;10.444;2023-07-24T05:51:14;2.88;;;2.63;;
12024;SDS011;6073;53.230;10.444;2023-07-24T05:53:39;2.60;;;2.40;;
12024;SDS011;6073;53.230;10.444;2023-07-24T05:56:05;2.70;;;2.50;;
12024;SDS011;6073;53.230;10.444;2023-07-24T05:58:31;3.83;;;2.63;;
12024;SDS011;6073;53.230;10.444;2023-07-24T06:00:56;2.55;;;2.35;;
12024;SDS011;6073;53.230;10.444;2023-07-24T06:03:22;2.60;;;2.40;;
12024;SDS011;6073;53.230;10.444;2023-07-24T06:05:54;3.70;;;2.60;;
12024;SDS011;6073;53.230;10.444;2023-07-24T06:08:21;2.30;;;2.10;;
12024;SDS011;6073;53.230;10.444;2023-07-24T06:10:48;2.97;;;2.30;;
12024;SDS011;6073;53.230;10.444;2023-07-24T06:13:15;3.13;;;2.20;;
12024;SDS011;6073;53.230;10.444;2023-07-24T06:15:41;2.60;;;2.40;;
12024;SDS011;6073;53.230;10.444;2023-07-24T06:18:06;2.60;;;2.40;;
12024;SDS011;6073;53.230;10.444;2023-07-24T06:20:32;2.90;;;2.70;;
12024;SDS011;6073;53.230;10.444;2023-07-24T06:22:57;3.25;;;2.95;;
12024;SDS011;6073;53.230;10.444;2023-07-24T06:25:23;3.53;;;3.22;;
12024;SDS011;6073;53.230;10.444;2023-07-24T06:27:48;3.40;;;3.10;;
12024;SDS011;6073;53.230;10.444;2023-07-24T06:30:14;3.47;;;3.00;;
12024;SDS011;6073;53.230;10.444;2023-07-24T06:32:39;3.35;;;3.13;;
12024;SDS011;6073;53.230;10.444;2023-07-24T06:35:05;3.80;;;3.50;;
12024;SDS011;6073;53.230;10.444;2023-07-24T06:37:30;4.20;;;3.80;;
12024;SDS011;6073;53.230;10.444;2023-07-24T06:39:56;4.53;;;4.10;;
12024;SDS011;6073;53.230;10.444;2023-07-24T06:42:21;4.15;;;3.80;;
12024;SDS011;6073;53.230;10.444;2023-07-24T06:44:47;4.68;;;4.28;;
12024;SDS011;6073;53.230;10.444;2023-07-24T06:47:12;4.45;;;4.05;;
12024;SDS011;6073;53.230;10.444;2023-07-24T06:49:38;4.60;;;4.20;;
12024;SDS011;6073;53.230;10.444;2023-07-24T06:52:04;4.75;;;4.10;;
12024;SDS011;6073;53.230;10.444;2023-07-24T06:54:29;5.55;;;4.82;;
12024;SDS011;6073;53.230;10.444;2023-07-24T06:56:55;5.32;;;4.80;;
12024;SDS011;6073;53.230;10.444;2023-07-24T06:59:20;5.97;;;5.25;;
12024;SDS011;6073;53.230;10.444;2023-07-24T07:01:46;6.00;;;5.47;;
12024;SDS011;6073;53.230;10.444;2023-07-24T07:04:11;5.63;;;5.13;;
12024;SDS011;6073;53.230;10.444;2023-07-24T07:06:37;5.35;;;4.90;;
12024;SDS011;6073;53.230;10.444;2023-07-24T07:09:02;5.45;;;5.00;;
12024;SDS011;6073;53.230;10.444;2023-07-24T07:11:29;5.13;;;4.70;;
12024;SDS011;6073;53.230;10.444;2023-07-24T07:13:55;4.93;;;4.53;;
12024;SDS011;6073;53.230;10.444;2023-07-24T07:16:20;6.07;;;5.57;;
12024;SDS011;6073;53.230;10.444;2023-07-24T07:18:46;4.65;;;4.35;;
12024;SDS011;6073;53.230;10.444;2023-07-24T07:21:11;5.28;;;4.78;;
12024;SDS011;6073;53.230;10.444;2023-07-24T07:23:37;5.55;;;4.50;;
12024;SDS011;6073;53.230;10.444;2023-07-24T07:26:02;5.93;;;5.43;;
12024;SDS011;6073;53.230;10.444;2023-07-24T07:28:28;8.90;;;5.65;;
12024;SDS011;6073;53.230;10.444;2023-07-24T07:30:53;5.53;;;5.03;;
12024;SDS011;6073;53.230;10.444;2023-07-24T07:33:19;6.07;;;5.57;;
12024;SDS011;6073;53.230;10.444;2023-07-24T07:35:48;6.25;;;5.75;;
12024;SDS011;6073;53.230;10.444;2023-07-24T07:38:14;6.47;;;5.85;;
12024;SDS011;6073;53.230;10.444;2023-07-24T07:40:39;7.88;;;6.18;;
12024;SDS011;6073;53.230;10.444;2023-07-24T07:43:05;6.68;;;6.03;;
12024;SDS011;6073;53.230;10.444;2023-07-24T07:45:30;8.55;;;6.82;;
12024;SDS011;6073;53.230;10.444;2023-07-24T07:47:56;7.63;;;6.82;;
12024;SDS011;6073;53.230;10.444;2023-07-24T07:50:21;7.80;;;7.10;;
12024;SDS011;6073;53.230;10.444;2023-07-24T07:52:50;7.18;;;6.22;;
12024;SDS011;6073;53.230;10.444;2023-07-24T07:55:17;7.78;;;7.07;;
12024;SDS011;6073;53.230;10.444;2023-07-24T07:57:43;9.10;;;6.85;;
12024;SDS011;6073;53.230;10.444;2023-07-24T08:00:09;7.63;;;6.93;;
12024;SDS011;6073;53.230;10.444;2023-07-24T08:02:34;7.95;;;7.25;;
12024;SDS011;6073;53.230;10.444;2023-07-24T08:05:04;8.55;;;7.55;;
12024;SDS011;6073;53.230;10.444;2023-07-24T08:07:33;8.88;;;7.72;;
12024;SDS011;6073;53.230;10.444;2023-07-24T08:09:59;8.90;;;7.97;;
12024;SDS011;6073;53.230;10.444;2023-07-24T08:12:24;9.68;;;8.35;;
12024;SDS011;6073;53.230;10.444;2023-07-24T08:14:50;8.93;;;8.15;;
12024;SDS011;6073;53.230;10.444;2023-07-24T08:17:15;20.33;;;8.15;;
12024;SDS011;6073;53.230;10.444;2023-07-24T08:19:41;9.93;;;8.73;;
12024;SDS011;6073;53.230;10.444;2023-07-24T08:22:10;8.50;;;7.65;;
12024;SDS011;6073;53.230;10.444;2023-07-24T08:24:35;9.35;;;7.78;;
12024;SDS011;6073;53.230;10.444;2023-07-24T08:27:01;9.30;;;7.25;;
12024;SDS011;6073;53.230;10.444;2023-07-24T08:29:27;6.75;;;6.15;;
12024;SDS011;6073;53.230;10.444;2023-07-24T08:31:53;7.50;;;6.80;;
12024;SDS011;6073;53.230;10.444;2023-07-24T08:34:18;6.28;;;5.20;;
12024;SDS011;6073;53.230;10.444;2023-07-24T08:36:50;6.18;;;5.25;;
12024;SDS011;6073;53.230;10.444;2023-07-24T08:39:16;6.18;;;5.20;;
12024;SDS011;6073;53.230;10.444;2023-07-24T08:41:41;5.75;;;5.25;;
12024;SDS011;6073;53.230;10.444;2023-07-24T08:44:07;6.25;;;5.65;;
12024;SDS011;6073;53.230;10.444;2023-07-24T08:46:36;5.93;;;5.43;;
12024;SDS011;6073;53.230;10.444;2023-07-24T08:49:03;5.90;;;5.35;;
12024;SDS011;6073;53.230;10.444;2023-07-24T08:51:29;5.60;;;5.10;;
12024;SDS011;6073;53.230;10.444;2023-07-24T08:53:56;7.13;;;6.47;;
12024;SDS011;6073;53.230;10.444;2023-07-24T08:56:22;6.00;;;5.45;;
12024;SDS011;6073;53.230;10.444;2023-07-24T08:58:48;8.20;;;6.68;;
12024;SDS011;6073;53.230;10.444;2023-07-24T09:01:14;7.30;;;6.45;;
12024;SDS011;6073;53.230;10.444;2023-07-24T09:03:40;6.93;;;6.22;;
12024;SDS011;6073;53.230;10.444;2023-07-24T09:06:05;7.90;;;6.18;;
12024;SDS011;6073;53.230;10.444;2023-07-24T09:08:37;5.28;;;4.78;;
12024;SDS011;6073;53.230;10.444;2023-07-24T09:11:06;5.85;;;4.60;;
12024;SDS011;6073;53.230;10.444;2023-07-24T09:13:35;4.75;;;4.35;;
12024;SDS011;6073;53.230;10.444;2023-07-24T09:16:02;5.15;;;3.85;;
12024;SDS011;6073;53.230;10.444;2023-07-24T09:18:38;7.00;;;4.10;;
12024;SDS011;6073;53.230;10.444;2023-07-24T09:21:05;4.05;;;3.65;;
12024;SDS011;6073;53.230;10.444;2023-07-24T09:23:30;4.45;;;3.95;;
12024;SDS011;6073;53.230;10.444;2023-07-24T09:25:56;5.63;;;4.28;;
12024;SDS011;6073;53.230;10.444;2023-07-24T09:28:22;4.68;;;4.28;;
12024;SDS011;6073;53.230;10.444;2023-07-24T09:30:51;4.57;;;4.18;;
12024;SDS011;6073;53.230;10.444;2023-07-24T09:33:18;4.97;;;4.47;;
12024;SDS011;6073;53.230;10.444;2023-07-24T09:35:43;4.38;;;4.05;;
12024;SDS011;6073;53.230;10.444;2023-07-24T09:38:10;4.63;;;3.78;;
12024;SDS011;6073;53.230;10.444;2023-07-24T09:40:37;3.92;;;3.63;;
12024;SDS011;6073;53.230;10.444;2023-07-24T09:43:21;3.78;;;3.38;;
12024;SDS011;6073;53.230;10.444;2023-07-24T09:45:49;4.57;;;3.03;;
12024;SDS011;6073;53.230;10.444;2023-07-24T09:48:16;3.08;;;2.83;;
12024;SDS011;6073;53.230;10.444;2023-07-24T09:50:43;2.80;;;2.60;;
12024;SDS011;6073;53.230;10.444;2023-07-24T09:53:21;2.80;;;2.50;;
12024;SDS011;6073;53.230;10.444;2023-07-24T09:58:32;2.65;;;2.40;;
12024;SDS011;6073;53.230;10.444;2023-07-24T10:01:02;2.83;;;2.47;;
12024;SDS011;6073;53.230;10.444;2023-07-24T10:03:30;2.45;;;2.25;;
12024;SDS011;6073;53.230;10.444;2023-07-24T10:05:58;2.55;;;2.35;;
12024;SDS011;6073;53.230;10.444;2023-07-24T10:08:25;2.40;;;2.20;;
12024;SDS011;6073;53.230;10.444;2023-07-24T10:10:52;3.45;;;2.28;;
12024;SDS011;6073;53.230;10.444;2023-07-24T10:13:18;2.20;;;2.05;;
12024;SDS011;6073;53.230;10.444;2023-07-24T10:15:46;3.28;;;2.45;;
12024;SDS011;6073;53.230;10.444;2023-07-24T10:18:14;2.50;;;2.30;;
12024;SDS011;6073;53.230;10.444;2023-07-24T10:20:41;2.75;;;2.45;;
12024;SDS011;6073;53.230;10.444;2023-07-24T10:23:08;3.00;;;2.70;;
12024;SDS011;6073;53.230;10.444;2023-07-24T10:25:36;3.25;;;2.83;;
12024;SDS011;6073;53.230;10.444;2023-07-24T10:28:06;3.15;;;2.90;;
12024;SDS011;6073;53.230;10.444;2023-07-24T10:30:35;3.00;;;2.75;;
12024;SDS011;6073;53.230;10.444;2023-07-24T10:33:08;3.55;;;3.25;;
12024;SDS011;6073;53.230;10.444;2023-07-24T10:35:39;3.00;;;2.80;;
12024;SDS011;6073;53.230;10.444;2023-07-24T10:38:12;2.83;;;2.53;;
12024;SDS011;6073;53.230;10.444;2023-07-24T10:40:40;3.10;;;2.80;;
12024;SDS011;6073;53.230;10.444;2023-07-24T10:48:11;3.25;;;2.97;;
12024;SDS011;6073;53.230;10.444;2023-07-24T10:50:38;3.00;;;2.80;;
12024;SDS011;6073;53.230;10.444;2023-07-24T10:53:04;4.07;;;3.50;;
12024;SDS011;6073;53.230;10.444;2023-07-24T10:55:30;3.13;;;2.80;;
12024;SDS011;6073;53.230;10.444;2023-07-24T10:57:55;3.08;;;2.88;;
12024;SDS011;6073;53.230;10.444;2023-07-24T11:00:21;3.53;;;3.22;;
12024;SDS011;6073;53.230;10.444;2023-07-24T11:02:46;3.35;;;3.05;;
12024;SDS011;6073;53.230;10.444;2023-07-24T11:05:12;3.35;;;3.05;;
12024;SDS011;6073;53.230;10.444;2023-07-24T11:07:39;3.60;;;3.30;;
12024;SDS011;6073;53.230;10.444;2023-07-24T11:10:14;3.47;;;3.17;;
12024;SDS011;6073;53.230;10.444;2023-07-24T11:12:40;3.40;;;3.15;;
12024;SDS011;6073;53.230;10.444;2023-07-24T11:15:05;3.20;;;2.90;;
12024;SDS011;6073;53.230;10.444;2023-07-24T11:17:35;3.65;;;3.35;;
12024;SDS011;6073;53.230;10.444;2023-07-24T11:20:06;3.35;;;3.05;;
12024;SDS011;6073;53.230;10.444;2023-07-24T11:22:39;3.40;;;2.80;;
12024;SDS011;6073;53.230;10.444;2023-07-24T11:25:06;3.50;;;3.20;;
12024;SDS011;6073;53.230;10.444;2023-07-24T11:27:33;3.38;;;3.00;;
12024;SDS011;6073;53.230;10.444;2023-07-24T11:30:02;3.33;;;3.03;;
12024;SDS011;6073;53.230;10.444;2023-07-24T11:32:28;3.70;;;3.03;;
12024;SDS011;6073;53.230;10.444;2023-07-24T11:34:54;3.35;;;3.10;;
12024;SDS011;6073;53.230;10.444;2023-07-24T11:37:19;3.45;;;3.10;;
12024;SDS011;6073;53.230;10.444;2023-07-24T11:39:58;3.42;;;3.08;;
12024;SDS011;6073;53.230;10.444;2023-07-24T11:42:29;2.80;;;2.42;;
12024;SDS011;6073;53.230;10.444;2023-07-24T11:44:55;2.88;;;2.65;;
12024;SDS011;6073;53.230;10.444;2023-07-24T11:47:25;2.70;;;2.50;;
12024;SDS011;6073;53.230;10.444;2023-07-24T11:50:00;2.65;;;2.45;;
12024;SDS011;6073;53.230;10.444;2023-07-24T11:52:26;4.32;;;2.80;;
12024;SDS011;6073;53.230;10.444;2023-07-24T11:55:02;2.97;;;2.47;;
12024;SDS011;6073;53.230;10.444;2023-07-24T11:57:28;2.75;;;2.55;;
12024;SDS011;6073;53.230;10.444;2023-07-24T11:59:54;2.70;;;2.50;;
12024;SDS011;6073;53.230;10.444;2023-07-24T12:02:21;3.45;;;2.60;;
12024;SDS011;6073;53.230;10.444;2023-07-24T12:04:47;2.95;;;2.50;;
12024;SDS011;6073;53.230;10.444;2023-07-24T12:07:32;2.95;;;2.75;;
12024;SDS011;6073;53.230;10.444;2023-07-24T12:10:03;2.88;;;2.58;;
12024;SDS011;6073;53.230;10.444;2023-07-24T12:15:04;2.53;;;2.33;;
12024;SDS011;6073;53.230;10.444;2023-07-24T12:17:30;1.95;;;1.83;;
12024;SDS011;6073;53.230;10.444;2023-07-24T12:19:56;2.22;;;2.03;;
12024;SDS011;6073;53.230;10.444;2023-07-24T12:22:21;2.10;;;1.90;;
12024;SDS011;6073;53.230;10.444;2023-07-24T12:24:47;2.15;;;2.00;;
12024;SDS011;6073;53.230;10.444;2023-07-24T12:27:13;2.47;;;2.10;;
12024;SDS011;6073;53.230;10.444;2023-07-24T12:29:38;2.20;;;2.00;;
12024;SDS011;6073;53.230;10.444;2023-07-24T12:32:04;2.50;;;2.28;;
12024;SDS011;6073;53.230;10.444;2023-07-24T12:34:29;1.75;;;1.65;;
12024;SDS011;6073;53.230;10.444;2023-07-24T12:36:55;2.70;;;1.80;;
12024;SDS011;6073;53.230;10.444;2023-07-24T12:39:21;3.15;;;1.90;;
12024;SDS011;6073;53.230;10.444;2023-07-24T12:41:46;1.90;;;1.80;;
12024;SDS011;6073;53.230;10.444;2023-07-24T12:44:12;2.42;;;1.83;;
12024;SDS011;6073;53.230;10.444;2023-07-24T12:46:37;2.25;;;2.05;;
12024;SDS011;6073;53.230;10.444;2023-07-24T12:49:03;2.33;;;1.90;;
12024;SDS011;6073;53.230;10.444;2023-07-24T12:51:28;2.55;;;2.35;;
12024;SDS011;6073;53.230;10.444;2023-07-24T12:53:54;1.98;;;1.77;;
12024;SDS011;6073;53.230;10.444;2023-07-24T12:56:19;1.90;;;1.80;;
12024;SDS011;6073;53.230;10.444;2023-07-24T12:58:45;1.92;;;1.70;;
12024;SDS011;6073;53.230;10.444;2023-07-24T13:01:11;1.63;;;1.52;;
12024;SDS011;6073;53.230;10.444;2023-07-24T13:03:36;1.75;;;1.60;;
12024;SDS011;6073;53.230;10.444;2023-07-24T13:06:02;2.08;;;1.83;;
12024;SDS011;6073;53.230;10.444;2023-07-24T13:08:27;1.70;;;1.60;;
12024;SDS011;6073;53.230;10.444;2023-07-24T13:10:53;2.80;;;1.77;;
12024;SDS011;6073;53.230;10.444;2023-07-24T13:13:18;2.10;;;1.75;;
12024;SDS011;6073;53.230;10.444;2023-07-24T13:15:44;2.72;;;1.85;;
12024;SDS011;6073;53.230;10.444;2023-07-24T13:18:09;2.03;;;1.80;;
12024;SDS011;6073;53.230;10.444;2023-07-24T13:20:38;3.92;;;1.85;;
12024;SDS011;6073;53.230;10.444;2023-07-24T13:23:05;2.35;;;1.70;;
12024;SDS011;6073;53.230;10.444;2023-07-24T13:25:30;1.90;;;1.67;;
12024;SDS011;6073;53.230;10.444;2023-07-24T13:27:56;1.77;;;1.67;;
12024;SDS011;6073;53.230;10.444;2023-07-24T13:30:21;1.90;;;1.63;;
12024;SDS011;6073;53.230;10.444;2023-07-24T13:32:47;3.22;;;2.00;;
12024;SDS011;6073;53.230;10.444;2023-07-24T13:35:12;1.70;;;1.58;;
12024;SDS011;6073;53.230;10.444;2023-07-24T13:37:38;2.47;;;2.00;;
12024;SDS011;6073;53.230;10.444;2023-07-24T13:40:03;1.95;;;1.80;;
12024;SDS011;6073;53.230;10.444;2023-07-24T13:42:29;2.20;;;2.00;;
12024;SDS011;6073;53.230;10.444;2023-07-24T13:44:55;2.13;;;1.92;;
12024;SDS011;6073;53.230;10.444;2023-07-24T13:47:20;2.10;;;1.88;;
12024;SDS011;6073;53.230;10.444;2023-07-24T13:49:46;1.98;;;1.88;;
12024;SDS011;6073;53.230;10.444;2023-07-24T13:52:11;3.47;;;1.90;;
12024;SDS011;6073;53.230;10.444;2023-07-24T13:54:37;1.98;;;1.88;;
12024;SDS011;6073;53.230;10.444;2023-07-24T13:57:03;3.15;;;2.00;;
12024;SDS011;6073;53.230;10.444;2023-07-24T13:59:28;2.78;;;2.13;;
12024;SDS011;6073;53.230;10.444;2023-07-24T14:01:54;3.22;;;2.10;;
12024;SDS011;6073;53.230;10.444;2023-07-24T14:04:19;2.78;;;2.28;;
12024;SDS011;6073;53.230;10.444;2023-07-24T14:06:45;3.72;;;2.83;;
12024;SDS011;6073;53.230;10.444;2023-07-24T14:09:10;3.05;;;2.67;;
12024;SDS011;6073;53.230;10.444;2023-07-24T14:11:36;3.72;;;2.45;;
12024;SDS011;6073;53.230;10.444;2023-07-24T14:14:02;3.03;;;2.25;;
12024;SDS011;6073;53.230;10.444;2023-07-24T14:16:28;2.30;;;2.10;;
12024;SDS011;6073;53.230;10.444;2023-07-24T14:18:53;2.80;;;2.50;;
12024;SDS011;6073;53.230;10.444;2023-07-24T14:21:19;3.30;;;2.58;;
12024;SDS011;6073;53.230;10.444;2023-07-24T14:23:44;3.08;;;2.53;;
12024;SDS011;6073;53.230;10.444;2023-07-24T14:26:10;3.00;;;2.70;;
12024;SDS011;6073;53.230;10.444;2023-07-24T14:28:35;2.50;;;2.30;;
12024;SDS011;6073;53.230;10.444;2023-07-24T14:31:01;3.40;;;2.38;;
12024;SDS011;6073;53.230;10.444;2023-07-24T14:33:26;2.33;;;2.13;;
12024;SDS011;6073;53.230;10.444;2023-07-24T14:35:52;3.38;;;2.50;;
12024;SDS011;6073;53.230;10.444;2023-07-24T14:38:19;2.30;;;2.10;;
12024;SDS011;6073;53.230;10.444;2023-07-24T14:40:45;2.63;;;2.40;;
12024;SDS011;6073;53.230;10.444;2023-07-24T14:43:10;2.60;;;2.40;;
12024;SDS011;6073;53.230;10.444;2023-07-24T14:45:36;2.70;;;2.50;;
12024;SDS011;6073;53.230;10.444;2023-07-24T14:48:01;2.88;;;2.50;;
12024;SDS011;6073;53.230;10.444;2023-07-24T14:50:27;3.05;;;2.60;;
12024;SDS011;6073;53.230;10.444;2023-07-24T14:52:53;2.47;;;2.28;;
12024;SDS011;6073;53.230;10.444;2023-07-24T14:55:19;3.05;;;2.75;;